Waltham, Minnesota
Current Conditions -  °F | °C
As of 11:36 AM on Friday 26 Dec 2014 (Local Time) from KAUM Reporting Station
Haze Haze  
Wind Chill: 26°   Ceiling: 500
Heat Index: 34°   Visibility: 3mi
Dew Point: 30°   Wind: 10mph
Humidity: 87%   Direction: 360°N
Pressure: 29.95"   Gusts: NA
Location:  43.82°N, 92.88°W
Report Text: KAUM 261736Z AUTO 36009KT 3SM BR OVC005 01/M01 A2995 RMK AO2
Loading
Personal Weather Stations






























Interactive Weather Map New forecast layout! Learn more

10-Day Weather Forecast

Advertisements
Track Severe Weather on mobile